createdAt,value
2023-03-30T00:00:18.825Z,54.95
2023-03-30T00:04:43.341Z,51.05
2023-03-30T00:08:45.624Z,46.90
2023-03-30T00:12:50.872Z,55.13
2023-03-30T00:16:53.525Z,48.85
2023-03-30T00:20:56.829Z,53.47
2023-03-30T00:24:59.096Z,50.95
2023-03-30T00:29:01.437Z,47.00
2023-03-30T00:33:04.361Z,50.20
2023-03-30T00:37:06.687Z,52.17
2023-03-30T00:41:09.437Z,44.97
2023-03-30T00:45:24.258Z,41.70
2023-03-30T00:49:26.638Z,49.90
2023-03-30T00:53:33.690Z,51.55
2023-03-30T00:57:39.038Z,53.85
2023-03-30T01:01:41.967Z,57.13
2023-03-30T01:05:48.939Z,48.22
2023-03-30T01:09:53.000Z,45.10
2023-03-30T01:14:00.474Z,45.25
2023-03-30T01:18:19.965Z,45.38
2023-03-30T01:22:47.191Z,44.73
2023-03-30T01:27:09.944Z,39.83
2023-03-30T01:31:32.102Z,44.70
2023-03-30T01:35:46.769Z,41.33
2023-03-30T01:40:14.999Z,41.55
2023-03-30T01:44:29.256Z,40.47
2023-03-30T01:48:53.152Z,43.20
2023-03-30T01:53:23.311Z,38.35
2023-03-30T01:57:34.022Z,38.78
2023-03-30T02:01:39.593Z,40.67
2023-03-30T02:05:44.759Z,37.65
2023-03-30T02:09:49.268Z,47.05
2023-03-30T02:13:53.470Z,43.97
2023-03-30T02:17:55.742Z,46.20
2023-03-30T02:21:59.116Z,38.05
2023-03-30T02:26:02.101Z,43.17
2023-03-30T02:30:09.033Z,34.70
2023-03-30T02:34:26.235Z,37.55
2023-03-30T02:38:40.895Z,41.15
2023-03-30T02:43:00.139Z,40.72
2023-03-30T02:47:23.785Z,38.45
2023-03-30T02:51:57.668Z,41.20
2023-03-30T02:56:23.553Z,38.53
2023-03-30T03:00:42.161Z,41.70
2023-03-30T03:04:52.987Z,42.92
2023-03-30T03:09:15.433Z,49.67
2023-03-30T03:13:20.777Z,38.15
2023-03-30T03:17:23.905Z,37.83
2023-03-30T03:21:26.366Z,41.97
2023-03-30T03:25:28.865Z,36.22
2023-03-30T03:29:37.852Z,40.90
2023-03-30T03:33:40.523Z,36.97
2023-03-30T03:37:49.765Z,44.25
2023-03-30T03:41:52.054Z,50.63
2023-03-30T03:45:54.318Z,38.35
2023-03-30T03:49:56.514Z,39.70
2023-03-30T03:53:59.052Z,39.05
2023-03-30T03:58:05.598Z,39.95
2023-03-30T04:02:07.805Z,43.70
2023-03-30T04:06:10.228Z,46.25
2023-03-30T04:10:13.789Z,39.20
2023-03-30T04:14:26.051Z,36.50
2023-03-30T04:18:42.008Z,46.33
2023-03-30T04:23:03.205Z,43.45
2023-03-30T04:27:16.977Z,35.90
2023-03-30T04:31:38.163Z,42.70
2023-03-30T04:36:17.588Z,40.45
2023-03-30T04:40:53.122Z,44.03
2023-03-30T04:45:12.792Z,38.03
2023-03-30T04:49:58.539Z,54.25
2023-03-30T04:54:22.825Z,42.55
2023-03-30T04:59:00.062Z,45.85
2023-03-30T05:03:40.324Z,48.55
2023-03-30T05:08:08.795Z,40.17
2023-03-30T05:12:36.901Z,39.60
2023-03-30T05:17:01.801Z,50.65
2023-03-30T05:21:12.715Z,36.88
2023-03-30T05:25:33.387Z,39.15
2023-03-30T05:29:42.103Z,44.10
2023-03-30T05:34:07.681Z,43.58
2023-03-30T05:38:23.302Z,35.45
2023-03-30T05:42:42.829Z,44.28
2023-03-30T05:47:11.100Z,43.85
2023-03-30T05:51:36.811Z,37.72
2023-03-30T05:55:57.360Z,38.40
2023-03-30T06:00:11.005Z,36.15
2023-03-30T06:04:27.219Z,43.47
2023-03-30T06:08:29.786Z,48.38
2023-03-30T06:12:35.932Z,46.22
2023-03-30T06:16:41.290Z,50.30
2023-03-30T06:20:48.782Z,39.72
2023-03-30T06:24:51.632Z,40.83
2023-03-30T06:28:56.177Z,31.60
2023-03-30T06:32:58.467Z,36.28
2023-03-30T06:37:13.980Z,45.25
2023-03-30T06:41:16.416Z,39.30
2023-03-30T06:45:22.105Z,45.17
2023-03-30T06:49:24.117Z,35.80
2023-03-30T06:53:58.690Z,46.28
2023-03-30T06:58:01.257Z,41.50
2023-03-30T07:02:04.214Z,38.08
2023-03-30T07:06:29.805Z,40.72
2023-03-30T07:10:32.947Z,37.67
2023-03-30T07:14:37.630Z,43.78
2023-03-30T07:18:39.723Z,39.13
2023-03-30T07:22:42.466Z,36.97
2023-03-30T07:26:44.723Z,32.45
2023-03-30T07:30:47.401Z,37.50
2023-03-30T07:34:50.576Z,38.35
2023-03-30T07:38:52.893Z,38.83
2023-03-30T07:42:55.211Z,38.05
2023-03-30T07:46:58.381Z,38.38
2023-03-30T07:51:03.929Z,39.70
2023-03-30T07:55:09.072Z,32.25
2023-03-30T07:59:27.136Z,40.22
2023-03-30T08:03:34.760Z,42.22
2023-03-30T08:07:37.283Z,32.80
2023-03-30T08:11:48.675Z,38.03
2023-03-30T08:15:52.589Z,30.10
2023-03-30T08:19:56.248Z,29.95
2023-03-30T08:23:59.163Z,38.67
2023-03-30T08:28:02.178Z,36.53
2023-03-30T08:32:04.313Z,39.60
2023-03-30T08:36:06.728Z,33.75
2023-03-30T08:40:12.822Z,29.77
2023-03-30T08:44:33.021Z,29.73
2023-03-30T08:48:37.849Z,30.98
2023-03-30T08:52:42.039Z,29.92
2023-03-30T08:57:03.342Z,31.20
2023-03-30T09:01:16.970Z,35.67
2023-03-30T09:05:25.641Z,34.70
2023-03-30T09:09:38.973Z,33.47
2023-03-30T09:13:45.430Z,34.35
2023-03-30T09:17:52.125Z,33.42
2023-03-30T09:21:55.883Z,32.78
2023-03-30T09:26:11.433Z,32.78
2023-03-30T09:30:19.972Z,47.70
2023-03-30T09:34:28.283Z,36.03
2023-03-30T09:38:32.308Z,29.88
2023-03-30T09:42:55.258Z,29.20
2023-03-30T09:46:59.555Z,30.83
2023-03-30T09:51:02.061Z,32.97
2023-03-30T09:55:25.232Z,30.98
2023-03-30T09:59:35.913Z,35.38
2023-03-30T10:03:40.049Z,32.50
2023-03-30T10:07:43.360Z,31.70
2023-03-30T10:11:49.581Z,28.83
2023-03-30T10:15:54.056Z,29.27
2023-03-30T10:20:39.301Z,30.90
2023-03-30T10:24:49.280Z,32.65
2023-03-30T10:28:53.650Z,27.25
2023-03-30T10:33:01.513Z,26.05
2023-03-30T10:37:11.989Z,28.02
2023-03-30T10:41:20.571Z,30.67
2023-03-30T10:45:34.874Z,28.65
2023-03-30T10:49:47.454Z,26.70
2023-03-30T10:54:13.079Z,30.15
2023-03-30T10:58:53.825Z,22.00
2023-03-30T11:03:16.655Z,29.27
2023-03-30T11:07:31.996Z,24.35
2023-03-30T11:11:39.108Z,28.42
2023-03-30T11:15:49.043Z,23.58
2023-03-30T11:20:40.382Z,21.75
2023-03-30T11:24:46.095Z,26.13
2023-03-30T11:28:58.571Z,21.85
2023-03-30T11:33:46.661Z,20.17
2023-03-30T11:38:13.289Z,22.83
2023-03-30T11:42:23.116Z,25.35
2023-03-30T11:47:00.777Z,27.42
2023-03-30T11:51:13.957Z,19.08
2023-03-30T11:55:41.123Z,22.67
2023-03-30T11:59:49.957Z,21.48
2023-03-30T12:08:38.986Z,23.92
2023-03-30T12:12:42.691Z,19.60
2023-03-30T12:16:52.067Z,24.73
2023-03-30T12:21:24.741Z,21.73
2023-03-30T12:25:38.342Z,19.10
2023-03-30T12:34:07.074Z,22.10
2023-03-30T12:38:09.192Z,16.63
2023-03-30T12:42:26.934Z,19.30
2023-03-30T12:46:42.132Z,19.00
2023-03-30T12:51:01.574Z,22.48
2023-03-30T12:55:17.886Z,21.88
2023-03-30T12:59:38.313Z,17.65
2023-03-30T13:03:50.180Z,14.95
2023-03-30T13:07:55.169Z,20.13
2023-03-30T13:11:59.925Z,22.70
2023-03-30T13:16:02.162Z,20.13
2023-03-30T13:20:29.133Z,17.98
2023-03-30T13:24:38.627Z,17.75
2023-03-30T13:28:56.029Z,16.17
2023-03-30T13:33:12.261Z,18.35
2023-03-30T13:37:52.322Z,14.18
2023-03-30T13:42:17.048Z,22.95
2023-03-30T13:46:34.432Z,20.80
2023-03-30T13:50:36.884Z,22.52
2023-03-30T13:54:41.019Z,21.73
2023-03-30T13:58:51.610Z,17.65
2023-03-30T14:02:53.790Z,17.65
2023-03-30T14:06:58.300Z,17.88
2023-03-30T14:11:02.722Z,20.40
2023-03-30T14:15:21.075Z,16.67
2023-03-30T14:19:27.060Z,18.73
2023-03-30T14:23:39.019Z,14.02
2023-03-30T14:27:40.814Z,17.13
2023-03-30T14:31:51.050Z,20.83
2023-03-30T14:36:00.727Z,21.42
2023-03-30T14:40:06.461Z,15.25
2023-03-30T14:44:11.823Z,10.40
2023-03-30T14:48:22.637Z,10.82
2023-03-30T14:52:40.770Z,13.30
2023-03-30T14:56:52.801Z,10.63
2023-03-30T15:01:00.343Z,12.27
2023-03-30T15:05:03.768Z,16.55
2023-03-30T15:09:14.755Z,19.13
2023-03-30T15:13:53.653Z,14.07
2023-03-30T15:17:56.422Z,10.88
2023-03-30T15:22:04.965Z,14.07
2023-03-30T15:26:08.596Z,12.75
2023-03-30T15:30:25.837Z,14.80
2023-03-30T15:34:27.991Z,17.85
2023-03-30T15:38:34.114Z,13.15
2023-03-30T15:42:36.259Z,14.52
2023-03-30T15:46:40.375Z,11.32
2023-03-30T15:50:46.714Z,13.88
2023-03-30T15:54:55.267Z,19.23
2023-03-30T15:58:58.233Z,17.92
2023-03-30T16:03:01.634Z,14.70
2023-03-30T16:07:14.365Z,21.15
2023-03-30T16:11:18.586Z,20.00
2023-03-30T16:15:23.688Z,18.85
2023-03-30T16:19:26.053Z,22.25
2023-03-30T16:23:28.002Z,20.70
2023-03-30T16:27:30.100Z,19.77
2023-03-30T16:31:33.516Z,18.52
2023-03-30T16:35:35.712Z,21.70
2023-03-30T16:39:37.775Z,24.58
2023-03-30T16:43:39.804Z,21.77
2023-03-30T16:47:41.860Z,25.90
2023-03-30T16:51:44.721Z,28.30
2023-03-30T16:55:46.835Z,29.98
2023-03-30T16:59:48.923Z,29.45
2023-03-30T17:03:51.142Z,25.15
2023-03-30T17:07:54.801Z,23.75
2023-03-30T17:11:56.965Z,25.85
2023-03-30T17:16:01.216Z,26.65
2023-03-30T17:20:54.244Z,27.60
2023-03-30T17:24:56.593Z,23.38
2023-03-30T17:28:58.663Z,23.60
2023-03-30T17:33:00.880Z,28.92
2023-03-30T17:37:03.161Z,23.95
2023-03-30T17:41:07.157Z,23.90
2023-03-30T17:45:10.032Z,24.77
2023-03-30T17:49:17.343Z,22.85
2023-03-30T17:53:20.727Z,27.75
2023-03-30T17:57:23.263Z,23.40
2023-03-30T18:01:25.600Z,31.20
2023-03-30T18:05:29.756Z,28.13
2023-03-30T18:09:32.202Z,27.38
2023-03-30T18:13:34.283Z,36.97
2023-03-30T18:17:36.356Z,38.47
2023-03-30T18:21:38.456Z,27.08
2023-03-30T18:25:40.762Z,30.67
2023-03-30T18:29:43.220Z,30.83
2023-03-30T18:33:45.677Z,31.25
2023-03-30T18:37:49.129Z,35.50
2023-03-30T18:41:51.797Z,32.85
2023-03-30T18:46:02.472Z,31.85
2023-03-30T18:50:11.943Z,44.55
2023-03-30T18:54:14.156Z,37.83
2023-03-30T18:58:24.388Z,30.17
2023-03-30T19:02:26.540Z,32.10
2023-03-30T19:06:28.990Z,34.60
2023-03-30T19:10:36.061Z,28.98
2023-03-30T19:14:38.075Z,32.92
2023-03-30T19:18:40.416Z,42.10
2023-03-30T19:22:42.743Z,38.47
2023-03-30T19:26:44.862Z,41.35
2023-03-30T19:30:47.406Z,43.05
2023-03-30T19:34:50.257Z,38.35
2023-03-30T19:38:52.295Z,47.47
2023-03-30T19:42:54.437Z,42.85
2023-03-30T19:46:56.421Z,41.78
2023-03-30T19:50:58.496Z,39.22
2023-03-30T19:55:00.548Z,38.20
2023-03-30T19:59:02.647Z,40.95
2023-03-30T20:03:04.971Z,44.83
2023-03-30T20:07:07.208Z,46.35
2023-03-30T20:11:10.570Z,41.25
2023-03-30T20:15:13.210Z,51.03
2023-03-30T20:19:28.401Z,47.17
2023-03-30T20:23:31.615Z,47.83
2023-03-30T20:27:33.942Z,42.97
2023-03-30T20:31:36.388Z,48.00
2023-03-30T20:35:38.557Z,49.78
2023-03-30T20:39:41.703Z,51.22
2023-03-30T20:43:56.204Z,42.70
2023-03-30T20:48:06.042Z,47.33
2023-03-30T20:52:08.378Z,52.25
2023-03-30T20:56:10.977Z,56.95
2023-03-30T21:00:13.673Z,54.17
2023-03-30T21:04:16.021Z,53.63
2023-03-30T21:08:18.033Z,52.30
2023-03-30T21:12:20.641Z,54.10
2023-03-30T21:16:24.614Z,49.10
2023-03-30T21:20:26.737Z,55.30
2023-03-30T21:24:30.245Z,57.30
2023-03-30T21:28:33.984Z,50.42
2023-03-30T21:32:36.666Z,48.42
2023-03-30T21:36:39.513Z,51.90
2023-03-30T21:40:42.039Z,56.95
2023-03-30T21:44:44.038Z,58.65
2023-03-30T21:48:47.041Z,60.28
2023-03-30T21:52:49.217Z,55.75
2023-03-30T21:56:51.214Z,59.00
2023-03-30T22:01:04.975Z,60.85
2023-03-30T22:05:12.940Z,66.50
2023-03-30T22:09:15.024Z,68.40
2023-03-30T22:13:16.978Z,66.65
2023-03-30T22:17:19.084Z,66.00
2023-03-30T22:21:24.641Z,67.05
2023-03-30T22:25:26.899Z,69.60
2023-03-30T22:29:29.056Z,61.90
2023-03-30T22:33:31.127Z,63.55
2023-03-30T22:37:33.276Z,67.13
2023-03-30T22:41:36.241Z,66.43
2023-03-30T22:45:39.570Z,70.25
2023-03-30T22:49:41.575Z,70.72
2023-03-30T22:53:43.578Z,62.95
2023-03-30T22:57:46.883Z,77.95
2023-03-30T23:01:48.615Z,74.75
2023-03-30T23:05:51.793Z,62.50
2023-03-30T23:09:53.710Z,64.88
2023-03-30T23:13:55.988Z,67.20
2023-03-30T23:17:58.100Z,56.85
2023-03-30T23:22:00.199Z,63.33
2023-03-30T23:26:08.358Z,61.72
2023-03-30T23:30:11.932Z,59.38
2023-03-30T23:34:13.994Z,55.33
2023-03-30T23:38:17.198Z,60.03
2023-03-30T23:42:19.305Z,54.83
2023-03-30T23:46:21.039Z,53.17
2023-03-30T23:50:23.098Z,54.80
2023-03-30T23:54:25.304Z,42.20
2023-03-30T23:58:27.303Z,43.00
